Time;durP1;ratioP1;P1;durP2;ratioP2;P2;SDS_P1;SDS_P2;PMS_P1;PMS_P2;Temp;Humidity;BMP_temperature;BMP_pressure;BME280_temperature;BME280_humidity;BME280_pressure;Samples;Min_cycle;Max_cycle;Signal;HPM_P1;HPM_P2
2021/05/09 02:06:12;;;;;;;5.03;2.90;;;11.30;91.80;;;;;;3880047;27;29320;-55
2021/05/09 02:08:59;;;;;;;4.53;3.28;;;11.30;92.00;;;;;;5120275;27;27397;-54
2021/05/09 02:11:54;;;;;;;5.57;2.88;;;11.30;91.80;;;;;;5105029;27;27418;-54
2021/05/09 02:14:53;;;;;;;3.42;2.50;;;11.30;91.90;;;;;;5084710;27;27401;-52
2021/05/09 02:17:42;;;;;;;2.72;2.53;;;11.30;91.90;;;;;;5123104;27;27436;-53
2021/05/09 02:20:37;;;;;;;4.72;3.13;;;11.20;92.10;;;;;;5120092;27;27477;-53
2021/05/09 02:23:24;;;;;;;5.20;2.55;;;11.20;92.00;;;;;;5119942;27;27411;-55
2021/05/09 02:26:10;;;;;;;4.00;2.90;;;11.20;91.90;;;;;;5093850;27;27385;-56
2021/05/09 02:28:58;;;;;;;3.17;2.60;;;11.20;91.80;;;;;;5094103;27;27371;-52
2021/05/09 02:31:44;;;;;;;2.78;2.50;;;11.20;92.00;;;;;;5126255;27;27627;-54
2021/05/09 02:34:51;;;;;;;4.60;2.70;;;11.10;91.90;;;;;;5123481;27;27431;-55
2021/05/09 02:37:38;;;;;;;3.22;2.05;;;11.10;91.80;;;;;;5108062;27;27475;-52
2021/05/09 02:40:25;;;;;;;2.80;2.40;;;11.10;91.80;;;;;;5093643;27;27428;-53
2021/05/09 02:43:16;;;;;;;2.65;2.13;;;11.10;91.90;;;;;;5126601;27;27385;-54
2021/05/09 02:46:03;;;;;;;2.60;2.10;;;11.10;91.80;;;;;;5107601;27;27408;-53
2021/05/09 02:48:50;;;;;;;2.58;1.92;;;11.00;91.90;;;;;;5110968;27;27463;-55
2021/05/09 02:51:36;;;;;;;2.85;2.30;;;11.00;91.80;;;;;;5126479;27;27417;-55
2021/05/09 02:54:23;;;;;;;4.32;2.75;;;11.00;91.80;;;;;;5107745;27;27329;-55
2021/05/09 02:57:10;;;;;;;2.80;1.70;;;11.00;91.90;;;;;;5110618;27;27557;-55
2021/05/09 02:59:56;;;;;;;3.40;2.20;;;11.00;92.40;;;;;;5107167;27;27422;-55
2021/05/09 03:02:43;;;;;;;3.17;1.95;;;10.90;91.90;;;;;;5126279;27;27903;-55
2021/05/09 03:05:35;;;;;;;2.63;2.03;;;11.00;92.10;;;;;;5122721;27;27427;-55
2021/05/09 03:08:21;;;;;;;3.97;2.15;;;10.90;92.20;;;;;;5126318;27;27520;-55
2021/05/09 03:11:08;;;;;;;4.28;2.10;;;10.90;92.10;;;;;;5107519;27;27392;-55
2021/05/09 03:13:55;;;;;;;2.70;1.98;;;10.90;92.20;;;;;;5126236;27;27427;-54
2021/05/09 03:16:42;;;;;;;5.55;2.30;;;10.90;92.10;;;;;;5125866;27;27608;-54
2021/05/09 03:19:28;;;;;;;3.63;2.15;;;10.90;92.20;;;;;;5110311;27;27372;-54
2021/05/09 03:22:15;;;;;;;4.13;2.20;;;10.90;92.00;;;;;;5126044;27;27529;-54
2021/05/09 03:25:01;;;;;;;2.72;2.15;;;10.80;91.90;;;;;;5125625;27;28074;-55
2021/05/09 03:27:47;;;;;;;2.83;2.15;;;10.80;92.00;;;;;;5125875;27;27518;-55
2021/05/09 03:30:34;;;;;;;3.08;1.80;;;10.80;91.90;;;;;;5125980;27;27458;-55
2021/05/09 03:33:21;;;;;;;3.05;1.65;;;10.80;91.90;;;;;;5125916;27;27416;-54
2021/05/09 03:36:07;;;;;;;2.58;1.83;;;10.80;92.00;;;;;;5125916;27;27370;-55
2021/05/09 03:38:54;;;;;;;2.97;2.15;;;10.80;92.10;;;;;;5110011;27;27371;-54
2021/05/09 03:41:41;;;;;;;3.40;1.70;;;10.70;91.90;;;;;;5110653;27;27623;-55
2021/05/09 03:44:27;;;;;;;1.58;1.48;;;10.70;91.90;;;;;;5125642;27;27459;-54
2021/05/09 03:47:14;;;;;;;5.18;2.03;;;10.70;92.10;;;;;;5110042;27;27437;-54
2021/05/09 03:50:01;;;;;;;4.95;1.90;;;10.70;92.00;;;;;;5125644;27;27396;-54
2021/05/09 03:52:47;;;;;;;2.15;1.73;;;10.70;92.20;;;;;;5125546;27;27371;-54
2021/05/09 03:55:33;;;;;;;1.85;1.48;;;10.60;92.10;;;;;;5106869;27;27411;-50
2021/05/09 03:58:20;;;;;;;1.50;1.40;;;10.60;92.30;;;;;;5125347;27;28078;-56
2021/05/09 04:01:06;;;;;;;2.42;1.65;;;10.60;92.40;;;;;;5095443;27;27467;-55
2021/05/09 04:03:52;;;;;;;2.45;1.60;;;10.50;92.00;;;;;;5109777;27;27344;-55
2021/05/09 04:06:38;;;;;;;2.95;1.90;;;10.60;92.20;;;;;;5124733;27;27512;-52
2021/05/09 04:09:25;;;;;;;2.95;1.55;;;10.50;92.00;;;;;;5109674;27;27411;-52
2021/05/09 04:12:12;;;;;;;2.45;1.70;;;10.50;92.00;;;;;;5125169;27;27337;-50
2021/05/09 04:14:58;;;;;;;5.78;1.42;;;10.50;92.30;;;;;;5125245;27;27396;-50
2021/05/09 04:17:45;;;;;;;1.85;1.45;;;10.50;92.20;;;;;;5124775;27;27437;-52
2021/05/09 04:20:32;;;;;;;1.92;1.33;;;10.50;92.40;;;;;;5124771;27;27484;-54
2021/05/09 04:23:20;;;;;;;1.60;1.40;;;10.50;92.50;;;;;;5124975;27;27433;-50
2021/05/09 04:26:06;;;;;;;2.53;1.50;;;10.50;92.30;;;;;;5106155;27;27409;-52
2021/05/09 04:28:53;;;;;;;3.28;1.38;;;10.50;92.20;;;;;;5109547;27;27412;-52
2021/05/09 04:31:41;;;;;;;1.60;1.33;;;10.50;92.20;;;;;;5124856;27;27382;-51
2021/05/09 04:34:27;;;;;;;2.03;1.35;;;10.50;92.20;;;;;;5095329;27;27478;-49
2021/05/09 04:37:13;;;;;;;1.67;1.33;;;10.50;92.10;;;;;;5091859;27;27457;-51
2021/05/09 04:40:00;;;;;;;2.35;1.80;;;10.50;92.20;;;;;;5124436;27;27492;-52
2021/05/09 04:42:46;;;;;;;2.05;1.52;;;10.50;92.40;;;;;;5124639;27;27877;-50
2021/05/09 04:45:33;;;;;;;2.67;1.75;;;10.50;92.40;;;;;;5091473;27;27381;-50
2021/05/09 04:48:19;;;;;;;2.22;1.70;;;10.50;92.30;;;;;;5106883;27;27399;-56
2021/05/09 04:51:06;;;;;;;2.10;1.63;;;10.50;92.30;;;;;;5121230;27;27407;-52
2021/05/09 04:53:53;;;;;;;1.45;1.35;;;10.50;92.20;;;;;;5121255;27;27976;-52
2021/05/09 04:56:39;;;;;;;1.52;1.42;;;10.50;92.40;;;;;;5124494;27;27503;-53
2021/05/09 04:59:26;;;;;;;3.38;1.63;;;10.50;92.40;;;;;;5124329;27;27410;-54
2021/05/09 05:02:12;;;;;;;2.50;1.40;;;10.50;92.50;;;;;;5091424;27;27432;-54
2021/05/09 05:04:59;;;;;;;1.73;1.45;;;10.50;92.10;;;;;;5108768;27;27334;-53
2021/05/09 05:07:45;;;;;;;1.58;1.30;;;10.50;92.20;;;;;;5083260;28;27499;-53
2021/05/09 05:10:31;;;;;;;3.50;1.85;;;10.50;92.50;;;;;;5083308;28;27413;-53
2021/05/09 05:13:23;;;;;;;3.63;1.60;;;10.50;92.60;;;;;;5083259;28;27411;-52
2021/05/09 05:16:09;;;;;;;1.90;1.70;;;10.60;92.60;;;;;;5082485;28;27339;-55
2021/05/09 05:18:56;;;;;;;2.97;2.25;;;10.60;92.50;;;;;;5082695;28;27475;-54
2021/05/09 05:21:42;;;;;;;2.00;1.65;;;10.60;92.30;;;;;;5082434;28;27435;-52
2021/05/09 05:24:28;;;;;;;6.53;1.70;;;10.60;92.00;;;;;;5082210;28;27439;-53
2021/05/09 05:27:15;;;;;;;4.55;1.55;;;10.60;92.80;;;;;;5083008;28;27880;-49
2021/05/09 05:30:02;;;;;;;1.60;1.50;;;10.70;92.10;;;;;;5083048;28;27481;-50
2021/05/09 05:32:49;;;;;;;2.35;1.63;;;10.70;92.30;;;;;;5078785;28;27410;-51
2021/05/09 05:35:35;;;;;;;2.08;1.70;;;10.70;92.00;;;;;;5079714;28;27380;-51
2021/05/09 05:38:21;;;;;;;2.40;1.95;;;10.80;91.90;;;;;;5082487;28;27473;-48
2021/05/09 05:41:09;;;;;;;2.30;1.95;;;10.90;92.20;;;;;;5082585;28;27443;-54
2021/05/09 05:43:55;;;;;;;2.45;2.03;;;11.00;92.10;;;;;;5095298;28;27022;-52
2021/05/09 05:46:42;;;;;;;1.92;1.58;;;11.10;92.10;;;;;;5093256;28;27395;-51
2021/05/09 05:49:29;;;;;;;2.67;1.90;;;11.20;92.30;;;;;;5082769;28;27947;-52
2021/05/09 05:52:16;;;;;;;5.32;2.42;;;11.30;92.00;;;;;;5082678;28;27463;-53
2021/05/09 05:55:03;;;;;;;1.88;1.77;;;11.40;92.00;;;;;;5082772;28;27431;-52
2021/05/09 05:57:49;;;;;;;2.92;2.00;;;11.60;91.90;;;;;;5064029;28;27491;-53
2021/05/09 06:00:36;;;;;;;2.45;1.92;;;11.70;91.70;;;;;;5085025;28;27358;-52
2021/05/09 06:03:23;;;;;;;2.45;2.00;;;11.90;91.80;;;;;;5086420;28;27304;-53
2021/05/09 06:06:10;;;;;;;2.50;2.30;;;12.00;91.70;;;;;;5093131;28;27402;-54
2021/05/09 06:08:57;;;;;;;1.90;1.70;;;12.10;91.80;;;;;;5107677;28;27454;-54
2021/05/09 06:11:43;;;;;;;2.75;1.80;;;12.40;91.40;;;;;;5106863;28;27853;-51
2021/05/09 06:14:30;;;;;;;2.20;1.92;;;12.70;90.70;;;;;;5107674;28;27462;-52
2021/05/09 06:17:16;;;;;;;1.73;1.63;;;13.00;89.50;;;;;;5106912;28;27360;-50
2021/05/09 06:20:05;;;;;;;2.25;1.95;;;13.40;86.70;;;;;;5106507;28;27407;-51
2021/05/09 06:22:57;;;;;;;2.08;1.70;;;13.80;85.30;;;;;;5107210;28;27947;-54
2021/05/09 06:25:43;;;;;;;1.50;1.40;;;14.20;83.30;;;;;;5103423;28;27344;-55
2021/05/09 06:28:30;;;;;;;2.63;1.50;;;14.60;82.20;;;;;;5107210;28;27388;-54
2021/05/09 06:31:16;;;;;;;2.33;1.65;;;14.90;81.60;;;;;;5107399;28;27400;-55
2021/05/09 06:34:03;;;;;;;1.85;1.40;;;15.30;80.30;;;;;;5107083;28;27489;-53
2021/05/09 06:36:49;;;;;;;3.15;1.40;;;15.60;79.50;;;;;;5107223;28;27423;-57
2021/05/09 06:39:37;;;;;;;1.52;1.40;;;16.00;79.30;;;;;;5088886;28;27397;-56
2021/05/09 06:42:24;;;;;;;1.95;1.20;;;16.40;79.40;;;;;;5107291;28;27334;-55
2021/05/09 06:45:24;;;;;;;2.60;1.50;;;16.70;77.50;;;;;;5106459;28;27493;-57
2021/05/09 06:48:11;;;;;;;1.63;1.30;;;17.10;77.80;;;;;;5106133;28;27397;-55
2021/05/09 06:51:01;;;;;;;1.63;1.20;;;17.40;77.80;;;;;;5107156;28;27433;-56
2021/05/09 06:53:47;;;;;;;2.75;1.20;;;17.60;78.40;;;;;;5106359;28;27415;-58
2021/05/09 06:56:33;;;;;;;1.90;1.35;;;17.90;76.90;;;;;;5106703;28;27480;-58
2021/05/09 06:59:20;;;;;;;3.17;1.48;;;18.10;75.70;;;;;;5106008;28;27502;-58
2021/05/09 07:02:06;;;;;;;3.85;1.52;;;18.40;76.40;;;;;;5105974;28;27390;-57
2021/05/09 07:04:53;;;;;;;2.47;1.33;;;18.70;74.30;;;;;;5106593;28;27363;-56
2021/05/09 07:07:50;;;;;;;4.40;1.17;;;18.90;74.00;;;;;;5104874;28;27422;-58
2021/05/09 07:10:37;;;;;;;4.80;1.27;;;19.20;73.40;;;;;;5102105;28;27491;-59
2021/05/09 07:13:24;;;;;;;1.23;1.02;;;19.50;72.30;;;;;;5106798;28;27423;-59
2021/05/09 07:16:12;;;;;;;1.92;1.23;;;19.80;72.30;;;;;;5105699;28;27352;-59
2021/05/09 07:19:02;;;;;;;2.20;0.90;;;20.10;71.30;;;;;;5105468;28;27401;-59
2021/05/09 07:21:54;;;;;;;1.30;1.02;;;20.40;70.60;;;;;;5091746;28;27466;-59
2021/05/09 07:24:44;;;;;;;1.33;1.10;;;20.70;68.70;;;;;;5106612;28;27415;-59
2021/05/09 07:27:31;;;;;;;2.72;1.35;;;20.90;67.70;;;;;;5088245;28;27387;-59
2021/05/09 07:30:18;;;;;;;1.95;1.20;;;21.10;69.20;;;;;;5091401;28;27898;-60
2021/05/09 07:33:05;;;;;;;2.03;1.30;;;21.30;66.70;;;;;;5105685;28;27320;-60
2021/05/09 07:35:53;;;;;;;1.48;1.20;;;21.40;66.10;;;;;;5106205;28;27480;-60
2021/05/09 07:38:39;;;;;;;1.25;1.08;;;21.50;66.00;;;;;;5101928;28;27466;-60
2021/05/09 07:41:26;;;;;;;1.15;1.05;;;21.70;65.90;;;;;;5106234;28;27406;-60
2021/05/09 07:44:13;;;;;;;1.52;1.10;;;21.90;65.40;;;;;;5106045;28;27376;-60
2021/05/09 07:47:02;;;;;;;1.73;1.02;;;22.30;64.70;;;;;;5102599;28;27379;-57
2021/05/09 07:49:57;;;;;;;2.08;1.30;;;22.50;64.90;;;;;;5105874;28;27371;-57
2021/05/09 07:52:48;;;;;;;1.52;1.10;;;22.80;63.70;;;;;;5106075;28;27434;-58
2021/05/09 07:55:36;;;;;;;2.15;1.13;;;23.20;61.60;;;;;;5105777;28;27488;-57
2021/05/09 07:58:23;;;;;;;2.75;1.00;;;23.60;60.70;;;;;;5102685;28;27548;-57
2021/05/09 08:01:11;;;;;;;7.07;1.20;;;23.90;60.90;;;;;;5105376;28;27412;-58
2021/05/09 08:03:59;;;;;;;1.80;1.15;;;24.20;58.70;;;;;;5101329;28;27332;-58
2021/05/09 08:06:46;;;;;;;2.50;1.08;;;24.60;58.40;;;;;;5117378;27;27957;-58
2021/05/09 08:09:34;;;;;;;3.63;1.60;;;24.90;57.90;;;;;;5126468;27;27468;-59
2021/05/09 08:12:22;;;;;;;1.45;0.82;;;25.10;57.10;;;;;;5107718;27;27407;-58
2021/05/09 08:15:11;;;;;;;2.88;1.35;;;25.20;57.10;;;;;;5122679;27;27335;-59
2021/05/09 08:17:58;;;;;;;1.67;0.98;;;25.30;56.40;;;;;;5125937;27;27501;-59
2021/05/09 08:20:46;;;;;;;4.10;1.15;;;25.50;56.10;;;;;;5093606;27;27449;-59
2021/05/09 08:23:35;;;;;;;1.65;1.00;;;25.60;56.20;;;;;;5110429;27;27413;-59
2021/05/09 08:26:23;;;;;;;1.50;1.10;;;25.70;56.20;;;;;;5110663;27;27408;-59
2021/05/09 08:29:20;;;;;;;2.38;2.03;;;25.80;56.50;;;;;;5125479;27;27437;-60
2021/05/09 08:32:09;;;;;;;1.90;1.45;;;26.00;56.70;;;;;;5095161;27;27392;-61
2021/05/09 08:34:58;;;;;;;3.75;1.83;;;26.10;56.10;;;;;;5107082;27;27420;-59
2021/05/09 08:37:46;;;;;;;4.70;1.40;;;26.20;56.10;;;;;;5125950;27;27472;-59
2021/05/09 08:40:33;;;;;;;3.97;1.20;;;26.30;56.20;;;;;;5125983;27;27409;-59
2021/05/09 08:43:21;;;;;;;1.60;1.00;;;26.40;55.90;;;;;;5125647;27;27406;-59
2021/05/09 08:46:10;;;;;;;1.08;0.90;;;26.50;55.80;;;;;;5125546;27;27447;-59
2021/05/09 08:48:59;;;;;;;4.50;1.20;;;26.60;55.00;;;;;;5125827;27;27348;-59
2021/05/09 08:51:50;;;;;;;2.25;1.05;;;26.70;53.90;;;;;;5106837;27;27462;-59
2021/05/09 08:54:52;;;;;;;2.25;1.20;;;26.80;54.50;;;;;;5125363;27;27389;-59
2021/05/09 08:57:41;;;;;;;2.08;1.20;;;27.00;54.70;;;;;;5106743;27;27321;-59
2021/05/09 09:00:30;;;;;;;7.30;1.40;;;27.10;54.40;;;;;;5110137;27;27333;-59
2021/05/09 09:03:18;;;;;;;2.05;1.20;;;27.30;54.00;;;;;;5106605;27;27486;-59
2021/05/09 09:06:09;;;;;;;1.58;1.00;;;27.50;52.00;;;;;;5124551;27;27446;-59
2021/05/09 09:08:59;;;;;;;1.60;1.10;;;27.70;53.50;;;;;;5096467;27;27404;-59
2021/05/09 09:12:12;;;;;;;1.77;1.33;;;27.80;52.80;;;;;;5125399;27;27371;-59
2021/05/09 09:15:08;;;;;;;1.98;1.10;;;28.00;54.30;;;;;;5106759;27;27364;-59
2021/05/09 09:17:58;;;;;;;1.20;1.10;;;28.10;54.20;;;;;;5125084;27;27375;-59
2021/05/09 09:20:49;;;;;;;1.65;1.10;;;28.20;53.00;;;;;;5106447;27;27428;-59
2021/05/09 09:23:53;;;;;;;6.72;1.70;;;28.30;53.90;;;;;;5108519;27;27992;-56
2021/05/09 09:26:53;;;;;;;2.38;1.58;;;28.30;46.50;;;;;;5106332;27;27363;-59
2021/05/09 09:29:45;;;;;;;5.40;2.25;;;28.20;44.80;;;;;;5092308;27;27516;-58
2021/05/09 09:33:17;;;;;;;8.60;2.63;;;28.10;47.20;;;;;;5107012;27;27392;-58
2021/05/09 09:36:20;;;;;;;3.70;1.77;;;28.20;52.10;;;;;;5110175;27;27336;-58
2021/05/09 09:39:09;;;;;;;5.93;2.17;;;28.30;51.00;;;;;;5117335;27;27550;-60
2021/05/09 09:41:59;;;;;;;2.78;1.50;;;28.40;49.90;;;;;;5128583;27;27383;-60
2021/05/09 09:44:50;;;;;;;1.77;0.98;;;28.40;49.20;;;;;;5128728;27;27425;-59
2021/05/09 09:47:53;;;;;;;3.22;1.30;;;28.50;48.70;;;;;;5095855;27;27395;-59
2021/05/09 09:50:49;;;;;;;37.90;10.85;;;28.50;47.00;;;;;;5130362;27;27386;-61
2021/05/09 09:53:42;;;;;;;10.35;4.72;;;28.40;68.20;;;;;;5116117;27;27344;-57
2021/05/09 09:56:33;;;;;;;5.28;1.92;;;28.20;66.00;;;;;;5114930;27;27422;-58
2021/05/09 09:59:25;;;;;;;4.15;1.52;;;28.10;50.90;;;;;;5129232;27;27427;-57
2021/05/09 10:02:18;;;;;;;2.35;1.30;;;28.00;49.20;;;;;;5110753;27;27329;-57
2021/05/09 10:05:21;;;;;;;5.60;1.90;;;28.00;49.60;;;;;;5128614;27;27368;-58
2021/05/09 10:08:13;;;;;;;7.53;2.83;;;28.00;51.00;;;;;;5106910;28;27454;-57
2021/05/09 10:11:15;;;;;;;4.47;1.67;;;28.00;54.10;;;;;;5106877;28;27527;-60
2021/05/09 10:14:06;;;;;;;2.40;1.50;;;28.10;52.40;;;;;;5106908;28;27374;-62
2021/05/09 10:16:57;;;;;;;2.67;1.20;;;28.10;52.60;;;;;;5104278;28;27449;-61
2021/05/09 10:19:48;;;;;;;2.63;1.42;;;28.10;53.50;;;;;;5107618;28;27420;-62
2021/05/09 10:22:44;;;;;;;4.30;1.02;;;28.10;47.70;;;;;;5089460;28;27394;-62
2021/05/09 10:34:14;;;;;;;2.25;0.90;;;28.00;45.20;;;;;;5106729;28;27386;-62
2021/05/09 10:37:33;;;;;;;3.10;1.23;;;28.00;44.10;;;;;;5103414;28;27403;-62
2021/05/09 10:40:47;;;;;;;1.20;1.00;;;28.10;45.20;;;;;;5106294;28;27419;-62
2021/05/09 10:43:40;;;;;;;3.42;0.90;;;28.10;45.10;;;;;;5103739;28;27442;-62
2021/05/09 10:47:10;;;;;;;2.53;0.90;;;28.20;44.80;;;;;;5105179;27;27469;-62
2021/05/09 10:50:21;;;;;;;1.85;1.08;;;28.20;45.40;;;;;;5106849;28;27367;-62
2021/05/09 10:53:34;;;;;;;1.95;0.80;;;28.20;43.40;;;;;;5088833;28;27453;-62
2021/05/09 10:56:24;;;;;;;1.05;0.90;;;28.10;44.10;;;;;;5103338;28;27460;-62
2021/05/09 10:59:15;;;;;;;0.90;0.90;;;28.10;43.20;;;;;;5105766;28;27399;-63
2021/05/09 11:02:09;;;;;;;1.27;0.63;;;28.00;44.10;;;;;;5102671;28;27413;-62
2021/05/09 11:04:57;;;;;;;1.40;1.05;;;27.90;44.40;;;;;;5106523;28;27340;-65
2021/05/09 11:07:56;;;;;;;4.18;0.70;;;27.80;43.60;;;;;;5091412;28;27589;-66
2021/05/09 11:11:21;;;;;;;1.83;0.85;;;27.80;45.30;;;;;;5103031;28;27371;-65
2021/05/09 11:14:10;;;;;;;0.70;0.60;;;28.00;47.50;;;;;;5106438;28;27344;-67
2021/05/09 11:17:17;;;;;;;1.38;0.70;;;28.20;49.90;;;;;;5088301;28;27425;-66
2021/05/09 11:20:12;;;;;;;1.15;0.90;;;28.30;48.40;;;;;;5091931;28;27461;-66
2021/05/09 11:23:03;;;;;;;2.47;0.88;;;28.50;49.70;;;;;;5102800;28;27415;-66
2021/05/09 11:25:53;;;;;;;2.78;0.80;;;28.50;49.90;;;;;;5106530;28;27371;-66
2021/05/09 11:28:43;;;;;;;0.93;0.70;;;28.60;49.40;;;;;;5106360;28;27392;-66
2021/05/09 11:31:34;;;;;;;1.42;0.63;;;28.70;50.50;;;;;;5102193;28;27443;-66
2021/05/09 11:34:28;;;;;;;3.13;0.80;;;28.80;50.90;;;;;;5106241;28;27336;-66
2021/05/09 11:37:37;;;;;;;4.68;0.90;;;28.90;53.20;;;;;;5101992;28;27849;-66
2021/05/09 11:40:30;;;;;;;2.80;0.70;;;28.90;49.10;;;;;;5102311;28;27449;-65
2021/05/09 11:43:27;;;;;;;1.08;0.85;;;28.90;49.30;;;;;;5103589;28;27309;-65
2021/05/09 11:46:25;;;;;;;1.77;1.00;;;29.00;50.60;;;;;;5102659;28;27336;-65
2021/05/09 11:49:25;;;;;;;0.82;0.77;;;29.10;52.30;;;;;;5106061;28;27421;-65
2021/05/09 11:52:20;;;;;;;2.90;0.90;;;29.10;50.80;;;;;;5106053;28;27458;-66
2021/05/09 11:55:14;;;;;;;1.30;0.90;;;29.10;51.30;;;;;;5103504;28;27352;-65
2021/05/09 11:58:14;;;;;;;1.58;0.90;;;29.10;50.40;;;;;;5101016;28;27364;-65
2021/05/09 12:01:05;;;;;;;1.65;0.80;;;29.00;48.50;;;;;;5088017;28;27457;-65
2021/05/09 12:04:13;;;;;;;1.30;0.73;;;29.00;48.00;;;;;;5105419;28;27401;-65
2021/05/09 12:07:14;;;;;;;1.33;0.90;;;28.90;47.00;;;;;;5076567;28;27930;-65
2021/05/09 12:10:11;;;;;;;2.17;1.20;;;28.70;46.60;;;;;;5084574;28;27382;-65
2021/05/09 12:13:08;;;;;;;1.25;1.10;;;28.60;50.60;;;;;;5085357;28;27386;-64
2021/05/09 12:16:12;;;;;;;1.67;1.20;;;28.60;50.90;;;;;;5082248;28;27371;-65
2021/05/09 12:19:13;;;;;;;1.63;0.88;;;28.50;52.40;;;;;;5068465;28;27393;-65
2021/05/09 12:22:07;;;;;;;1.17;0.82;;;28.50;54.10;;;;;;5081297;28;27334;-65
2021/05/09 12:25:05;;;;;;;2.00;0.73;;;28.60;55.70;;;;;;5067483;28;27336;-65
2021/05/09 12:31:47;;;;;;;1.83;0.75;;;28.60;50.10;;;;;;5084348;28;27414;-65
2021/05/09 12:35:13;;;;;;;1.45;1.10;;;28.60;55.00;;;;;;5084071;28;27339;-65
2021/05/09 12:38:03;;;;;;;1.05;0.80;;;28.60;54.40;;;;;;5068790;28;27512;-65
2021/05/09 12:41:26;;;;;;;1.77;0.82;;;28.70;58.90;;;;;;5080947;28;27469;-65
2021/05/09 12:44:29;;;;;;;1.02;0.70;;;28.70;58.10;;;;;;5084946;28;27484;-65
2021/05/09 12:48:02;;;;;;;2.30;0.90;;;28.80;55.70;;;;;;5084601;28;27446;-65
2021/05/09 12:51:34;;;;;;;1.17;0.65;;;28.80;53.90;;;;;;5080794;28;27325;-64
2021/05/09 12:55:01;;;;;;;2.58;0.70;;;28.80;51.10;;;;;;5084440;28;27511;-64
2021/05/09 12:58:13;;;;;;;1.05;0.70;;;28.80;52.30;;;;;;5052756;28;27317;-64
2021/05/09 13:01:24;;;;;;;3.50;0.93;;;28.80;52.70;;;;;;5066352;28;27332;-64
2021/05/09 13:04:31;;;;;;;0.70;0.70;;;28.80;55.80;;;;;;5067594;28;27916;-64
2021/05/09 13:07:29;;;;;;;1.50;0.90;;;28.80;52.90;;;;;;5083435;28;27917;-64
2021/05/09 13:10:25;;;;;;;1.58;0.82;;;28.80;53.60;;;;;;5080328;28;27387;-63
2021/05/09 13:13:24;;;;;;;0.80;0.60;;;28.80;50.50;;;;;;5083839;28;26945;-64
2021/05/09 13:16:32;;;;;;;1.13;0.80;;;28.80;52.60;;;;;;5080206;28;27407;-64
2021/05/09 13:19:26;;;;;;;0.82;0.80;;;28.90;55.40;;;;;;5083426;28;27408;-64
2021/05/09 13:22:28;;;;;;;3.10;0.90;;;28.90;56.10;;;;;;5083559;28;27477;-64
2021/05/09 13:25:22;;;;;;;1.00;0.70;;;28.90;56.90;;;;;;5084415;28;27362;-64
2021/05/09 13:28:22;;;;;;;1.13;0.80;;;28.90;57.30;;;;;;5080327;28;27400;-63
2021/05/09 13:31:33;;;;;;;1.70;0.75;;;29.00;56.00;;;;;;5081229;28;27398;-63
2021/05/09 13:34:31;;;;;;;1.08;0.98;;;29.00;55.80;;;;;;5055898;28;27463;-64
2021/05/09 13:37:24;;;;;;;1.20;0.80;;;29.00;57.60;;;;;;5066515;28;27380;-64
2021/05/09 13:40:17;;;;;;;1.17;0.80;;;28.90;57.90;;;;;;5079523;28;28059;-63
2021/05/09 13:43:10;;;;;;;1.52;0.85;;;28.90;56.90;;;;;;5080114;28;27390;-63
2021/05/09 13:46:02;;;;;;;2.15;0.70;;;29.00;57.80;;;;;;5066343;28;27350;-64
2021/05/09 13:53:02;;;;;;;2.53;0.98;;;28.90;55.10;;;;;;5082490;28;27363;-64
2021/05/09 13:56:00;;;;;;;0.85;0.60;;;28.90;56.10;;;;;;5079851;28;27461;-64
2021/05/09 13:59:04;;;;;;;2.50;0.80;;;28.90;56.00;;;;;;5066926;28;27376;-64
2021/05/09 14:02:17;;;;;;;0.70;0.70;;;28.90;58.60;;;;;;5079604;28;27414;-64
2021/05/09 14:05:23;;;;;;;0.63;0.55;;;29.00;57.30;;;;;;5079702;28;27564;-64
2021/05/09 14:08:16;;;;;;;2.85;0.73;;;29.00;56.80;;;;;;5100892;28;27467;-64
2021/05/09 14:11:15;;;;;;;2.45;1.00;;;29.00;56.60;;;;;;5103976;28;27410;-64
2021/05/09 14:14:05;;;;;;;0.80;0.80;;;29.00;55.40;;;;;;5086061;28;27350;-64
2021/05/09 14:16:54;;;;;;;1.83;1.20;;;29.00;56.40;;;;;;5100815;28;27406;-63
2021/05/09 14:19:46;;;;;;;1.00;0.90;;;29.00;58.00;;;;;;5100254;28;27343;-63
2021/05/09 14:22:38;;;;;;;0.98;0.73;;;28.90;57.60;;;;;;5107974;28;27460;-63
2021/05/09 14:25:33;;;;;;;1.50;0.90;;;28.90;58.20;;;;;;5106844;28;27402;-63
2021/05/09 14:28:24;;;;;;;1.50;0.90;;;28.90;55.70;;;;;;5103145;28;27456;-63
2021/05/09 14:31:16;;;;;;;0.80;0.80;;;28.90;52.50;;;;;;5107354;28;27370;-63
2021/05/09 14:34:11;;;;;;;1.05;0.95;;;28.90;52.30;;;;;;5103777;28;27414;-63
2021/05/09 14:37:09;;;;;;;0.98;0.63;;;28.90;56.20;;;;;;5107160;28;27385;-62
2021/05/09 14:40:10;;;;;;;4.32;1.02;;;28.90;56.00;;;;;;5102742;28;27975;-63
2021/05/09 14:42:59;;;;;;;1.27;0.80;;;28.80;54.80;;;;;;5079702;28;27470;-63
2021/05/09 14:45:47;;;;;;;1.17;0.65;;;28.80;56.00;;;;;;5103308;28;27463;-63
2021/05/09 14:48:51;;;;;;;1.48;0.90;;;28.70;55.30;;;;;;5106521;28;27426;-62
2021/05/09 14:51:46;;;;;;;2.55;0.70;;;28.60;54.40;;;;;;5106843;28;27382;-63
2021/05/09 14:54:40;;;;;;;2.13;0.93;;;28.50;54.10;;;;;;5102783;28;27405;-62
2021/05/09 14:57:48;;;;;;;1.02;0.88;;;28.40;55.40;;;;;;5106598;28;27341;-61
2021/05/09 15:00:47;;;;;;;0.73;0.73;;;28.40;55.10;;;;;;5107083;28;27369;-63
2021/05/09 15:03:42;;;;;;;1.88;1.00;;;28.40;52.30;;;;;;5102580;28;27446;-63
2021/05/09 15:06:38;;;;;;;1.38;0.90;;;28.40;51.70;;;;;;5103102;28;27425;-63
2021/05/09 15:09:28;;;;;;;0.95;0.77;;;28.40;52.30;;;;;;5102914;28;27399;-62
2021/05/09 15:12:24;;;;;;;2.50;0.85;;;28.40;47.10;;;;;;5091948;28;27329;-62
2021/05/09 15:15:14;;;;;;;1.20;0.88;;;28.40;50.30;;;;;;5102456;28;27462;-63
2021/05/09 15:18:02;;;;;;;1.10;0.80;;;28.40;52.70;;;;;;5106546;28;27415;-63
2021/05/09 15:21:02;;;;;;;0.65;0.65;;;28.40;53.40;;;;;;5106211;28;27367;-63
2021/05/09 15:23:52;;;;;;;1.42;0.70;;;28.50;54.50;;;;;;5106714;28;27406;-62
2021/05/09 15:26:44;;;;;;;3.63;0.70;;;28.50;48.90;;;;;;5105640;28;27377;-63
2021/05/09 15:29:38;;;;;;;1.27;0.90;;;28.50;51.80;;;;;;5102403;28;27348;-63
2021/05/09 15:33:04;;;;;;;0.77;0.68;;;28.50;52.20;;;;;;5102849;28;27474;-63
2021/05/09 15:36:05;;;;;;;0.88;0.70;;;28.50;52.50;;;;;;5106481;28;27440;-63
2021/05/09 15:38:52;;;;;;;1.90;0.80;;;28.50;53.40;;;;;;5102345;28;27489;-62
2021/05/09 15:41:40;;;;;;;2.15;0.60;;;28.50;52.40;;;;;;5102323;28;27510;-63
2021/05/09 15:44:28;;;;;;;5.65;2.80;;;28.40;52.90;;;;;;5106653;28;27336;-64
2021/05/09 15:47:17;;;;;;;1.67;0.80;;;28.40;52.00;;;;;;5102298;28;27371;-63
2021/05/09 15:50:08;;;;;;;1.13;0.93;;;28.40;52.40;;;;;;5106202;28;27836;-63
2021/05/09 15:52:56;;;;;;;0.98;0.70;;;28.30;52.90;;;;;;5106695;28;27430;-63
2021/05/09 15:55:44;;;;;;;1.95;0.80;;;28.30;53.00;;;;;;5106237;28;27473;-63
2021/05/09 15:58:33;;;;;;;1.92;0.73;;;28.30;52.90;;;;;;5105718;28;27465;-63
2021/05/09 16:01:21;;;;;;;2.10;0.93;;;28.20;52.40;;;;;;5105878;28;27958;-63
2021/05/09 16:04:10;;;;;;;1.10;0.82;;;28.20;50.90;;;;;;5104998;28;27425;-63
2021/05/09 16:07:14;;;;;;;2.30;0.60;;;28.20;51.40;;;;;;5116772;27;27394;-63
2021/05/09 16:10:04;;;;;;;0.60;0.60;;;28.10;52.40;;;;;;5122856;27;27379;-63
2021/05/09 16:12:56;;;;;;;3.42;0.82;;;28.10;52.50;;;;;;5107726;27;27431;-63
2021/05/09 16:15:44;;;;;;;3.03;0.85;;;28.00;53.00;;;;;;5110876;27;27356;-61
2021/05/09 16:18:33;;;;;;;19.27;6.40;;;28.00;52.00;;;;;;5107465;27;27494;-69
2021/05/09 16:21:22;;;;;;;8.82;2.25;;;27.80;62.50;;;;;;5107557;27;27423;-67
2021/05/09 16:24:10;;;;;;;6.43;1.10;;;27.60;55.20;;;;;;5122975;27;27965;-64
2021/05/09 16:26:58;;;;;;;1.08;0.98;;;27.40;47.00;;;;;;5107546;27;27436;-67
2021/05/09 16:29:46;;;;;;;5.63;1.13;;;27.30;46.10;;;;;;5107503;27;27434;-68
2021/05/09 16:32:36;;;;;;;3.65;1.00;;;27.30;46.40;;;;;;5125809;27;27323;-67
2021/05/09 16:35:24;;;;;;;4.07;0.90;;;27.30;47.50;;;;;;5125645;27;27888;-67
2021/05/09 16:38:11;;;;;;;4.97;1.20;;;27.30;48.60;;;;;;5125996;27;27474;-67
2021/05/09 16:41:03;;;;;;;6.32;1.05;;;27.30;48.40;;;;;;5125633;27;27387;-65
2021/05/09 16:44:24;;;;;;;4.05;3.65;;;27.30;49.00;;;;;;5124365;27;27375;-65
2021/05/09 16:47:13;;;;;;;7.88;3.78;;;27.20;50.10;;;;;;5106884;27;27857;-62
2021/05/09 16:50:02;;;;;;;5.50;2.72;;;27.20;51.10;;;;;;5106892;27;27462;-66
2021/05/09 16:53:39;;;;;;;51.88;26.60;;;27.10;45.90;;;;;;5125482;27;27384;-65
2021/05/09 16:56:00;;;;;;;12.90;6.93;;;27.00;44.10;;;;;;5113078;27;27506;-66
2021/05/09 16:58:49;;;;;;;11.38;7.70;;;27.00;45.40;;;;;;5078781;27;27931;-65
2021/05/09 17:01:38;;;;;;;6.90;4.30;;;27.00;44.10;;;;;;5125289;27;27345;-66
2021/05/09 17:04:27;;;;;;;52.50;25.52;;;27.00;44.00;;;;;;5125643;27;27448;-65
2021/05/09 17:07:14;;;;;;;9.52;5.90;;;27.00;42.40;;;;;;5124414;27;27320;-65
2021/05/09 17:10:01;;;;;;;13.07;8.77;;;27.00;41.30;;;;;;5125180;27;27951;-64
2021/05/09 17:12:50;;;;;;;12.50;8.40;;;27.00;43.20;;;;;;5110245;27;27423;-65
2021/05/09 17:15:38;;;;;;;7.80;4.35;;;27.00;42.80;;;;;;5125198;27;27383;-65
2021/05/09 17:18:26;;;;;;;10.98;6.82;;;27.00;43.60;;;;;;5106752;27;27389;-66